createdAt,value
2018-12-27T00:00:53.817Z,86.36
2018-12-27T00:03:24.219Z,86.35
2018-12-27T00:05:54.659Z,86.57
2018-12-27T00:08:25.119Z,86.71
2018-12-27T00:10:58.645Z,86.84
2018-12-27T00:13:29.089Z,87.03
2018-12-27T00:15:59.541Z,87.27
2018-12-27T00:18:29.900Z,87.41
2018-12-27T00:21:00.292Z,87.55
2018-12-27T00:23:30.708Z,87.71
2018-12-27T00:26:01.289Z,87.72
2018-12-27T00:28:31.815Z,87.91
2018-12-27T00:31:02.548Z,87.81
2018-12-27T00:33:35.127Z,87.81
2018-12-27T00:36:05.884Z,87.94
2018-12-27T00:38:36.546Z,88.07
2018-12-27T00:41:07.273Z,88.04
2018-12-27T00:43:37.883Z,88.30
2018-12-27T00:46:08.787Z,88.28
2018-12-27T00:48:39.374Z,88.10
2018-12-27T00:51:09.987Z,88.11
2018-12-27T00:53:40.639Z,88.19
2018-12-27T00:56:11.272Z,88.42
2018-12-27T00:58:41.910Z,88.39
2018-12-27T01:01:12.534Z,88.30
2018-12-27T01:03:43.513Z,88.45
2018-12-27T01:06:14.070Z,88.33
2018-12-27T01:08:48.535Z,88.54
2018-12-27T01:11:19.128Z,88.67
2018-12-27T01:13:49.827Z,88.87
2018-12-27T01:16:20.389Z,88.80
2018-12-27T01:18:51.047Z,88.78
2018-12-27T01:21:21.798Z,88.90
2018-12-27T01:23:52.450Z,89.08
2018-12-27T01:26:29.058Z,89.08
2018-12-27T01:28:59.719Z,89.05
2018-12-27T01:31:30.353Z,89.15
2018-12-27T01:34:03.961Z,88.88
2018-12-27T01:36:34.670Z,88.91
2018-12-27T01:39:06.889Z,88.97
2018-12-27T01:41:37.530Z,88.75
2018-12-27T01:44:09.079Z,89.26
2018-12-27T01:46:39.745Z,88.72
2018-12-27T01:49:10.378Z,88.52
2018-12-27T01:51:44.391Z,88.35
2018-12-27T01:54:27.279Z,88.31
2018-12-27T01:56:58.573Z,88.37
2018-12-27T01:59:31.522Z,88.08
2018-12-27T02:02:03.325Z,88.09
2018-12-27T02:04:34.046Z,87.81
2018-12-27T02:07:06.778Z,87.80
2018-12-27T02:09:40.353Z,87.42
2018-12-27T02:12:10.960Z,87.43
2018-12-27T02:14:41.984Z,87.44
2018-12-27T02:17:12.750Z,87.29
2018-12-27T02:19:45.408Z,87.23
2018-12-27T02:22:17.060Z,87.41
2018-12-27T02:24:49.604Z,87.30
2018-12-27T02:27:21.613Z,87.15
2018-12-27T02:29:58.568Z,87.05
2018-12-27T02:32:30.146Z,87.07
2018-12-27T02:35:00.737Z,87.23
2018-12-27T02:37:33.891Z,87.30
2018-12-27T02:40:04.479Z,87.28
2018-12-27T02:42:40.098Z,87.04
2018-12-27T02:45:19.178Z,87.12
2018-12-27T02:47:50.848Z,86.95
2018-12-27T02:50:21.818Z,87.05
2018-12-27T02:52:52.428Z,87.17
2018-12-27T02:55:23.247Z,86.98
2018-12-27T02:57:53.881Z,87.17
2018-12-27T03:00:24.469Z,87.27
2018-12-27T03:02:57.107Z,87.15
2018-12-27T03:05:27.733Z,87.00
2018-12-27T03:07:58.731Z,87.15
2018-12-27T03:10:29.430Z,87.07
2018-12-27T03:12:59.965Z,87.18
2018-12-27T03:15:30.559Z,87.38
2018-12-27T03:18:02.114Z,87.49
2018-12-27T03:20:32.781Z,87.63
2018-12-27T03:23:03.377Z,87.59
2018-12-27T03:25:33.966Z,87.87
2018-12-27T03:28:04.538Z,88.06
2018-12-27T03:30:35.181Z,88.14
2018-12-27T03:33:05.849Z,88.30
2018-12-27T03:35:36.460Z,88.52
2018-12-27T03:38:09.514Z,88.66
2018-12-27T03:40:40.448Z,88.80
2018-12-27T03:43:11.086Z,88.89
2018-12-27T03:45:41.845Z,88.93
2018-12-27T03:48:12.415Z,89.06
2018-12-27T03:50:43.019Z,89.02
2018-12-27T03:53:13.642Z,89.22
2018-12-27T03:55:44.923Z,89.42
2018-12-27T03:58:15.582Z,89.55
2018-12-27T04:00:46.208Z,89.40
2018-12-27T04:03:16.852Z,89.21
2018-12-27T04:05:49.377Z,89.36
2018-12-27T04:08:20.037Z,89.26
2018-12-27T04:10:50.656Z,89.20
2018-12-27T04:13:21.277Z,89.31
2018-12-27T04:15:51.751Z,89.32
2018-12-27T04:18:23.269Z,89.07
2018-12-27T04:20:53.643Z,89.03
2018-12-27T04:23:24.526Z,88.99
2018-12-27T04:26:22.925Z,88.86
2018-12-27T04:28:50.645Z,88.85
2018-12-27T04:31:21.339Z,88.59
2018-12-27T04:33:52.452Z,88.44
2018-12-27T04:36:23.037Z,88.47
2018-12-27T04:38:55.350Z,88.50
2018-12-27T04:41:25.829Z,88.37
2018-12-27T04:43:58.969Z,88.59
2018-12-27T04:46:29.425Z,88.60
2018-12-27T04:48:59.809Z,88.58
2018-12-27T04:51:31.990Z,88.55
2018-12-27T04:54:04.809Z,88.65
2018-12-27T04:56:39.445Z,88.58
2018-12-27T04:59:09.901Z,88.77
2018-12-27T05:01:42.760Z,88.81
2018-12-27T05:04:18.138Z,88.71
2018-12-27T05:06:46.751Z,88.81
2018-12-27T05:09:17.174Z,89.09
2018-12-27T05:11:50.633Z,89.35
2018-12-27T05:14:21.006Z,89.48
2018-12-27T05:16:51.445Z,89.79
2018-12-27T05:19:22.144Z,89.87
2018-12-27T05:21:52.473Z,89.73
2018-12-27T05:24:22.948Z,89.79
2018-12-27T05:26:53.599Z,89.96
2018-12-27T05:29:24.058Z,90.06
2018-12-27T05:31:54.495Z,90.07
2018-12-27T05:34:26.321Z,90.07
2018-12-27T05:36:57.399Z,90.07
2018-12-27T05:39:27.916Z,90.23
2018-12-27T05:41:59.204Z,90.57
2018-12-27T05:44:29.559Z,90.35
2018-12-27T05:46:59.990Z,90.30
2018-12-27T05:49:30.442Z,90.48
2018-12-27T05:52:00.876Z,90.42
2018-12-27T05:54:33.496Z,90.15
2018-12-27T05:57:04.228Z,90.17
2018-12-27T05:59:34.616Z,90.28
2018-12-27T06:02:05.109Z,90.23
2018-12-27T06:04:35.638Z,90.30
2018-12-27T06:07:06.080Z,90.52
2018-12-27T06:09:36.478Z,90.64
2018-12-27T06:12:06.939Z,90.62
2018-12-27T06:14:37.450Z,90.68
2018-12-27T06:17:07.815Z,90.67
2018-12-27T06:19:38.262Z,90.76
2018-12-27T06:22:08.718Z,91.08
2018-12-27T06:24:39.358Z,91.04
2018-12-27T06:27:11.438Z,91.21
2018-12-27T06:29:43.451Z,91.25
2018-12-27T06:32:14.177Z,91.06
2018-12-27T06:34:44.705Z,91.30
2018-12-27T06:37:15.371Z,91.26
2018-12-27T06:39:46.965Z,91.20
2018-12-27T06:42:17.578Z,91.46
2018-12-27T06:44:47.996Z,91.61
2018-12-27T06:47:18.492Z,91.63
2018-12-27T06:49:48.943Z,91.38
2018-12-27T06:52:19.660Z,91.45
2018-12-27T06:54:50.008Z,91.67
2018-12-27T06:57:21.356Z,91.63
2018-12-27T06:59:51.702Z,91.84
2018-12-27T07:02:22.348Z,91.89
2018-12-27T07:04:52.770Z,91.84
2018-12-27T07:07:23.494Z,91.89
2018-12-27T07:09:56.383Z,92.05
2018-12-27T07:12:27.668Z,92.24
2018-12-27T07:15:00.341Z,92.26
2018-12-27T07:17:32.552Z,92.40
2018-12-27T07:20:03.317Z,92.62
2018-12-27T07:22:33.690Z,92.86
2018-12-27T07:25:06.218Z,93.08
2018-12-27T07:27:36.618Z,93.01
2018-12-27T07:30:07.613Z,92.68
2018-12-27T07:32:39.039Z,92.50
2018-12-27T07:35:09.523Z,92.02
2018-12-27T07:37:40.235Z,91.87
2018-12-27T07:40:10.733Z,91.57
2018-12-27T07:42:41.237Z,91.20
2018-12-27T07:45:11.587Z,90.96
2018-12-27T07:47:42.152Z,90.99
2018-12-27T07:50:12.495Z,90.77
2018-12-27T07:52:43.006Z,90.40
2018-12-27T07:55:13.479Z,90.23
2018-12-27T07:57:43.941Z,89.86
2018-12-27T08:00:14.413Z,89.82
2018-12-27T08:02:47.677Z,89.70
2018-12-27T08:05:18.077Z,89.41
2018-12-27T08:07:48.536Z,89.36
2018-12-27T08:10:22.115Z,89.04
2018-12-27T08:12:52.454Z,88.79
2018-12-27T08:15:22.883Z,88.98
2018-12-27T08:17:53.321Z,88.50
2018-12-27T08:20:23.758Z,88.22
2018-12-27T08:22:57.246Z,88.10
2018-12-27T08:25:27.606Z,87.18
2018-12-27T08:27:57.995Z,87.01
2018-12-27T08:30:28.294Z,86.44
2018-12-27T08:32:58.725Z,86.32
2018-12-27T08:35:32.631Z,86.00
2018-12-27T08:38:03.426Z,86.08
2018-12-27T08:40:34.265Z,85.87
2018-12-27T08:43:06.139Z,86.19
2018-12-27T08:45:36.494Z,85.77
2018-12-27T08:48:06.849Z,85.61
2018-12-27T08:50:37.213Z,85.61
2018-12-27T08:53:10.613Z,85.46
2018-12-27T08:55:40.968Z,85.54
2018-12-27T08:58:11.356Z,84.89
2018-12-27T09:00:41.758Z,85.31
2018-12-27T09:03:12.185Z,85.61
2018-12-27T09:05:42.569Z,85.41
2018-12-27T09:08:12.995Z,84.80
2018-12-27T09:10:43.372Z,84.44
2018-12-27T09:13:14.020Z,84.22
2018-12-27T09:15:44.380Z,83.86
2018-12-27T09:18:17.783Z,84.10
2018-12-27T09:20:48.289Z,83.47
2018-12-27T09:23:18.713Z,83.50
2018-12-27T09:25:49.144Z,83.52
2018-12-27T09:28:19.613Z,82.71
2018-12-27T09:30:50.109Z,82.33
2018-12-27T09:33:22.752Z,81.96
2018-12-27T09:35:53.154Z,81.54
2018-12-27T09:38:23.608Z,80.63
2018-12-27T09:40:54.932Z,80.78
2018-12-27T09:43:28.124Z,82.55
2018-12-27T09:46:01.244Z,81.38
2018-12-27T09:48:31.617Z,80.34
2018-12-27T09:51:02.165Z,79.84
2018-12-27T09:53:32.622Z,79.43
2018-12-27T09:56:03.031Z,79.70
2018-12-27T09:58:33.678Z,79.26
2018-12-27T10:01:04.006Z,79.75
2018-12-27T10:03:34.437Z,79.98
2018-12-27T10:06:04.996Z,79.24
2018-12-27T10:08:35.454Z,79.75
2018-12-27T10:11:06.052Z,81.02
2018-12-27T10:13:36.526Z,78.06
2018-12-27T10:16:06.841Z,76.52
2018-12-27T10:18:37.243Z,76.32
2018-12-27T10:21:07.592Z,77.04
2018-12-27T10:23:38.017Z,76.30
2018-12-27T10:26:08.423Z,76.23
2018-12-27T10:28:38.810Z,76.56
2018-12-27T10:31:12.269Z,75.68
2018-12-27T10:33:42.671Z,75.70
2018-12-27T10:36:13.531Z,77.75
2018-12-27T10:38:49.266Z,75.84
2018-12-27T10:41:19.642Z,75.60
2018-12-27T10:43:52.511Z,73.96
2018-12-27T10:46:23.493Z,75.34
2018-12-27T10:48:56.663Z,73.68
2018-12-27T10:51:26.899Z,73.89
2018-12-27T10:53:57.430Z,74.16
2018-12-27T10:56:27.846Z,73.56
2018-12-27T10:58:58.857Z,74.19
2018-12-27T11:01:29.320Z,73.65
2018-12-27T11:03:59.824Z,72.78
2018-12-27T11:06:30.835Z,72.90
2018-12-27T11:09:01.453Z,73.20
2018-12-27T11:11:31.823Z,73.85
2018-12-27T11:14:02.159Z,73.21
2018-12-27T11:16:32.542Z,73.19
2018-12-27T11:19:05.501Z,72.99
2018-12-27T11:21:39.164Z,72.52
2018-12-27T11:24:09.505Z,72.45
2018-12-27T11:26:39.854Z,72.33
2018-12-27T11:29:13.406Z,72.12
2018-12-27T11:31:46.864Z,71.60
2018-12-27T11:34:20.655Z,72.08
2018-12-27T11:36:54.777Z,71.34
2018-12-27T11:39:26.908Z,70.71
2018-12-27T11:41:57.467Z,70.77
2018-12-27T11:44:27.863Z,70.68
2018-12-27T11:46:58.240Z,70.64
2018-12-27T11:49:28.950Z,70.58
2018-12-27T11:51:59.469Z,70.08
2018-12-27T11:54:29.906Z,70.07
2018-12-27T11:57:00.185Z,69.65
2018-12-27T11:59:30.607Z,70.39
2018-12-27T12:02:01.158Z,70.08
2018-12-27T12:04:31.643Z,70.22
2018-12-27T12:07:02.159Z,70.74
2018-12-27T12:09:32.531Z,70.04
2018-12-27T12:12:02.910Z,70.04
2018-12-27T12:14:36.853Z,70.29
2018-12-27T12:17:07.580Z,70.01
2018-12-27T12:19:38.058Z,69.42
2018-12-27T12:22:10.466Z,69.60
2018-12-27T12:24:40.986Z,68.53
2018-12-27T12:27:11.369Z,67.11
2018-12-27T12:29:41.740Z,65.22
2018-12-27T12:32:13.864Z,63.68
2018-12-27T12:34:45.809Z,61.99
2018-12-27T12:37:16.266Z,61.05
2018-12-27T12:39:49.786Z,58.85
2018-12-27T12:42:32.500Z,58.67
2018-12-27T12:44:53.262Z,59.91
2018-12-27T12:47:23.657Z,61.01
2018-12-27T12:49:54.739Z,61.07
2018-12-27T12:52:27.805Z,62.23
2018-12-27T12:55:01.028Z,61.93
2018-12-27T12:57:31.377Z,62.58
2018-12-27T13:00:01.810Z,64.13
2018-12-27T13:02:32.203Z,63.58
2018-12-27T13:05:06.464Z,64.25
2018-12-27T13:07:36.845Z,64.62
2018-12-27T13:10:07.209Z,64.46
2018-12-27T13:12:37.658Z,64.45
2018-12-27T13:15:08.344Z,64.87
2018-12-27T13:17:38.968Z,65.74
2018-12-27T13:20:10.019Z,65.11
2018-12-27T13:22:40.438Z,65.35
2018-12-27T13:25:13.862Z,65.43
2018-12-27T13:27:44.286Z,65.40
2018-12-27T13:30:14.616Z,65.89
2018-12-27T13:32:44.986Z,66.31
2018-12-27T13:35:15.359Z,66.43
2018-12-27T13:37:45.737Z,66.81
2018-12-27T13:40:16.063Z,66.36
2018-12-27T13:42:46.710Z,66.87
2018-12-27T13:45:17.022Z,66.10
2018-12-27T13:47:49.334Z,66.67
2018-12-27T13:50:21.990Z,66.90
2018-12-27T13:52:52.449Z,68.27
2018-12-27T13:55:22.814Z,67.30
2018-12-27T13:57:53.277Z,67.58
2018-12-27T14:00:23.752Z,67.67
2018-12-27T14:02:54.227Z,67.04
2018-12-27T14:05:25.490Z,67.16
2018-12-27T14:07:58.445Z,68.15
2018-12-27T14:10:28.859Z,68.65
2018-12-27T14:12:59.413Z,68.32
2018-12-27T14:15:33.360Z,68.68
2018-12-27T14:18:03.699Z,69.57
2018-12-27T14:20:34.020Z,68.97
2018-12-27T14:23:04.507Z,68.93
2018-12-27T14:25:38.039Z,68.90
2018-12-27T14:28:10.709Z,69.28
2018-12-27T14:30:41.132Z,69.89
2018-12-27T14:33:11.765Z,70.09
2018-12-27T14:35:42.214Z,70.41
2018-12-27T14:38:12.919Z,70.16
2018-12-27T14:40:43.279Z,70.35
2018-12-27T14:43:13.677Z,70.74
2018-12-27T14:45:44.086Z,70.99
2018-12-27T14:48:14.528Z,71.18
2018-12-27T14:50:44.880Z,71.02
2018-12-27T14:53:15.234Z,70.87
2018-12-27T14:55:48.662Z,71.26
2018-12-27T14:58:19.224Z,71.44
2018-12-27T15:00:49.942Z,71.29
2018-12-27T15:03:20.362Z,70.69
2018-12-27T15:05:50.713Z,71.93
2018-12-27T15:08:21.539Z,71.64
2018-12-27T15:10:51.952Z,72.66
2018-12-27T15:13:24.659Z,78.28
2018-12-27T15:15:55.029Z,75.42
2018-12-27T15:18:31.305Z,78.22
2018-12-27T15:21:02.121Z,74.08
2018-12-27T15:23:34.496Z,74.94
2018-12-27T15:26:05.223Z,74.42
2018-12-27T15:28:35.664Z,74.43
2018-12-27T15:31:06.399Z,74.68
2018-12-27T15:33:36.986Z,74.70
2018-12-27T15:36:07.538Z,73.98
2018-12-27T15:38:37.973Z,73.21
2018-12-27T15:41:08.361Z,75.72
2018-12-27T15:43:38.770Z,73.39
2018-12-27T15:46:09.373Z,73.85
2018-12-27T15:48:39.785Z,74.46
2018-12-27T15:51:11.562Z,73.79
2018-12-27T15:53:42.029Z,75.09
2018-12-27T15:56:12.443Z,74.80
2018-12-27T15:58:42.843Z,74.44
2018-12-27T16:01:13.240Z,74.49
2018-12-27T16:03:43.979Z,74.66
2018-12-27T16:06:14.361Z,75.08
2018-12-27T16:08:44.773Z,75.03
2018-12-27T16:11:15.126Z,74.85
2018-12-27T16:13:45.468Z,75.26
2018-12-27T16:16:15.998Z,75.68
2018-12-27T16:18:46.431Z,75.91
2018-12-27T16:21:17.034Z,75.97
2018-12-27T16:23:47.400Z,76.34
2018-12-27T16:26:18.705Z,76.53
2018-12-27T16:28:49.490Z,76.60
2018-12-27T16:31:20.811Z,76.78
2018-12-27T16:33:51.160Z,77.00
2018-12-27T16:36:21.490Z,77.17
2018-12-27T16:38:51.858Z,77.15
2018-12-27T16:41:23.359Z,77.79
2018-12-27T16:43:53.792Z,77.65
2018-12-27T16:46:24.402Z,77.66
2018-12-27T16:48:54.809Z,77.37
2018-12-27T16:51:25.422Z,77.54
2018-12-27T16:53:55.774Z,77.77
2018-12-27T16:56:26.370Z,77.98
2018-12-27T16:58:56.785Z,78.08
2018-12-27T17:01:27.098Z,78.42
2018-12-27T17:03:57.537Z,79.57
2018-12-27T17:06:28.231Z,78.54
2018-12-27T17:08:58.596Z,78.75
2018-12-27T17:11:29.384Z,79.06
2018-12-27T17:14:00.166Z,79.27
2018-12-27T17:16:30.631Z,79.44
2018-12-27T17:19:01.090Z,80.11
2018-12-27T17:21:31.575Z,79.86
2018-12-27T17:24:01.923Z,80.14
2018-12-27T17:26:32.326Z,80.43
2018-12-27T17:29:02.685Z,80.77
2018-12-27T17:31:33.103Z,80.66
2018-12-27T17:34:03.511Z,80.59
2018-12-27T17:36:33.708Z,80.88
2018-12-27T17:39:05.868Z,80.87
2018-12-27T17:41:36.390Z,81.11
2018-12-27T17:44:06.978Z,81.10
2018-12-27T17:46:37.454Z,81.33
2018-12-27T17:49:08.009Z,80.81
2018-12-27T17:51:38.341Z,81.18
2018-12-27T17:54:08.656Z,80.77
2018-12-27T17:56:39.006Z,80.35
2018-12-27T17:59:09.381Z,80.44
2018-12-27T18:01:39.872Z,80.79
2018-12-27T18:04:10.737Z,81.17
2018-12-27T18:06:42.070Z,81.52
2018-12-27T18:09:12.651Z,81.53
2018-12-27T18:11:42.978Z,81.64
2018-12-27T18:14:13.352Z,81.64
2018-12-27T18:16:43.657Z,81.49
2018-12-27T18:19:14.053Z,81.53
2018-12-27T18:21:44.375Z,81.63
2018-12-27T18:24:14.741Z,81.72
2018-12-27T18:26:45.032Z,81.81
2018-12-27T18:29:15.398Z,81.81
2018-12-27T18:31:45.791Z,81.92
2018-12-27T18:34:16.128Z,82.41
2018-12-27T18:36:46.486Z,82.62
2018-12-27T18:39:16.846Z,82.83
2018-12-27T18:41:47.207Z,82.78
2018-12-27T18:44:17.602Z,82.91
2018-12-27T18:46:48.150Z,82.91
2018-12-27T18:49:20.767Z,82.47
2018-12-27T18:51:50.865Z,82.45
2018-12-27T18:54:21.527Z,82.85
2018-12-27T18:56:51.914Z,82.55
2018-12-27T18:59:22.228Z,82.60
2018-12-27T19:01:52.607Z,82.53
2018-12-27T19:04:22.966Z,82.26
2018-12-27T19:06:53.336Z,82.17
2018-12-27T19:09:26.758Z,82.14
2018-12-27T19:12:32.413Z,82.01
2018-12-27T19:15:06.749Z,82.07
2018-12-27T19:17:46.647Z,82.01
2018-12-27T19:20:17.083Z,82.29
2018-12-27T19:23:19.663Z,82.45
2018-12-27T19:25:50.542Z,82.32
2018-12-27T19:28:21.508Z,82.54
2018-12-27T19:30:51.928Z,82.49
2018-12-27T19:33:25.083Z,82.62
2018-12-27T19:35:55.467Z,82.80
2018-12-27T19:38:25.936Z,82.63
2018-12-27T19:40:56.378Z,82.71
2018-12-27T19:43:27.407Z,82.83
2018-12-27T19:45:57.848Z,82.87
2018-12-27T19:48:31.437Z,82.95
2018-12-27T19:51:04.240Z,83.12
2018-12-27T19:53:34.606Z,82.48
2018-12-27T19:56:06.239Z,82.12
2018-12-27T19:58:36.577Z,82.03
2018-12-27T20:01:06.992Z,82.41
2018-12-27T20:03:37.357Z,82.83
2018-12-27T20:06:07.802Z,83.00
2018-12-27T20:08:38.283Z,83.27
2018-12-27T20:11:08.798Z,83.02
2018-12-27T20:13:39.145Z,83.38
2018-12-27T20:16:12.700Z,83.68
2018-12-27T20:18:43.214Z,83.72
2018-12-27T20:21:13.624Z,84.04
2018-12-27T20:23:44.024Z,83.66
2018-12-27T20:26:18.164Z,83.70
2018-12-27T20:28:49.175Z,83.81
2018-12-27T20:31:24.179Z,84.07
2018-12-27T20:33:54.659Z,84.60
2018-12-27T20:36:25.235Z,84.93
2018-12-27T20:38:57.153Z,85.31
2018-12-27T20:41:29.622Z,85.54
2018-12-27T20:44:05.460Z,85.98
2018-12-27T20:46:35.986Z,86.37
2018-12-27T20:49:06.410Z,86.68
2018-12-27T20:51:39.502Z,87.03
2018-12-27T20:54:12.430Z,87.27
2018-12-27T20:56:43.108Z,87.42
2018-12-27T20:59:13.467Z,87.58
2018-12-27T21:01:43.968Z,87.24
2018-12-27T21:04:14.679Z,87.18
2018-12-27T21:06:45.179Z,87.36
2018-12-27T21:09:15.773Z,87.70
2018-12-27T21:11:46.342Z,87.67
2018-12-27T21:14:16.927Z,87.98
2018-12-27T21:16:47.266Z,88.12
2018-12-27T21:19:17.700Z,88.25
2018-12-27T21:21:50.740Z,88.27
2018-12-27T21:24:21.151Z,88.44
2018-12-27T21:26:51.506Z,88.41
2018-12-27T21:29:21.963Z,88.43
2018-12-27T21:31:52.463Z,88.63
2018-12-27T21:34:22.840Z,88.67
2018-12-27T21:36:56.278Z,88.78
2018-12-27T21:39:26.826Z,88.80
2018-12-27T21:41:57.201Z,88.73
2018-12-27T21:44:30.074Z,88.56
2018-12-27T21:47:00.576Z,88.65
2018-12-27T21:49:30.950Z,88.63
2018-12-27T21:52:01.306Z,88.02
2018-12-27T21:54:32.186Z,87.91
2018-12-27T21:57:02.768Z,87.81
2018-12-27T21:59:33.863Z,87.83
2018-12-27T22:02:04.563Z,87.81
2018-12-27T22:04:35.232Z,87.84
2018-12-27T22:07:06.334Z,87.87
2018-12-27T22:09:37.482Z,87.76
2018-12-27T22:12:09.870Z,88.00
2018-12-27T22:14:40.532Z,88.37
2018-12-27T22:17:10.979Z,88.71
2018-12-27T22:19:43.812Z,88.32
2018-12-27T22:22:15.749Z,88.32
2018-12-27T22:24:48.460Z,88.36
2018-12-27T22:27:22.535Z,88.69
2018-12-27T22:29:54.417Z,88.64
2018-12-27T22:32:28.484Z,88.68
2018-12-27T22:35:01.746Z,88.67
2018-12-27T22:37:38.478Z,88.71
2018-12-27T22:40:09.682Z,88.75
2018-12-27T22:42:43.014Z,88.38
2018-12-27T22:45:13.578Z,88.52
2018-12-27T22:47:46.816Z,88.20
2018-12-27T22:50:17.468Z,88.30
2018-12-27T22:52:48.447Z,88.06
2018-12-27T22:55:18.980Z,87.90
2018-12-27T22:57:50.083Z,87.69
2018-12-27T23:00:36.296Z,87.66
2018-12-27T23:03:09.180Z,87.84
2018-12-27T23:05:39.646Z,87.90
2018-12-27T23:08:10.066Z,87.80
2018-12-27T23:10:40.869Z,87.74
2018-12-27T23:13:11.780Z,87.74
2018-12-27T23:15:44.181Z,87.81
2018-12-27T23:18:17.802Z,87.94
2018-12-27T23:20:48.237Z,88.12
2018-12-27T23:23:18.646Z,88.34
2018-12-27T23:25:49.138Z,88.45
2018-12-27T23:28:19.813Z,88.54
2018-12-27T23:30:50.866Z,88.73
2018-12-27T23:33:21.932Z,88.67
2018-12-27T23:35:55.827Z,88.98
2018-12-27T23:38:28.507Z,89.10
2018-12-27T23:41:03.855Z,89.28
2018-12-27T23:43:35.167Z,89.89
2018-12-27T23:46:07.555Z,89.80
2018-12-27T23:48:38.845Z,89.35
2018-12-27T23:51:09.533Z,89.22
2018-12-27T23:53:40.587Z,89.22
2018-12-27T23:56:11.629Z,89.45
2018-12-27T23:58:43.956Z,89.49
